createdAt,value
2018-07-22T00:00:58.960Z,17.70
2018-07-22T00:03:31.057Z,17.69
2018-07-22T00:06:03.184Z,17.68
2018-07-22T00:08:35.330Z,17.68
2018-07-22T00:11:07.442Z,17.64
2018-07-22T00:13:39.566Z,17.64
2018-07-22T00:16:11.714Z,17.61
2018-07-22T00:18:43.983Z,17.61
2018-07-22T00:21:16.162Z,17.62
2018-07-22T00:23:48.291Z,17.57
2018-07-22T00:26:20.417Z,17.61
2018-07-22T00:28:52.491Z,17.59
2018-07-22T00:31:25.763Z,17.59
2018-07-22T00:33:58.129Z,17.62
2018-07-22T00:36:30.254Z,17.60
2018-07-22T00:39:02.511Z,17.57
2018-07-22T00:41:34.631Z,17.55
2018-07-22T00:44:06.737Z,17.56
2018-07-22T00:46:38.880Z,17.50
2018-07-22T00:49:10.988Z,17.52
2018-07-22T00:51:43.052Z,17.46
2018-07-22T00:54:15.114Z,17.44
2018-07-22T00:56:47.171Z,17.44
2018-07-22T00:59:19.270Z,17.40
2018-07-22T01:01:51.315Z,17.42
2018-07-22T01:04:23.358Z,17.39
2018-07-22T01:06:55.470Z,17.43
2018-07-22T01:09:27.580Z,17.41
2018-07-22T01:11:59.742Z,17.39
2018-07-22T01:14:31.922Z,17.35
2018-07-22T01:17:04.084Z,17.31
2018-07-22T01:19:36.179Z,17.29
2018-07-22T01:22:08.319Z,17.27
2018-07-22T01:24:40.422Z,17.28
2018-07-22T01:27:12.582Z,17.30
2018-07-22T01:29:44.741Z,17.29
2018-07-22T01:32:17.877Z,17.33
2018-07-22T01:34:49.948Z,17.27
2018-07-22T01:37:22.032Z,17.23
2018-07-22T01:39:54.104Z,17.26
2018-07-22T01:42:26.370Z,17.25
2018-07-22T01:44:58.466Z,17.27
2018-07-22T01:47:30.534Z,17.24
2018-07-22T01:50:02.670Z,17.26
2018-07-22T01:52:34.806Z,17.29
2018-07-22T01:55:07.220Z,17.23
2018-07-22T01:57:39.247Z,17.25
2018-07-22T02:00:11.329Z,17.24
2018-07-22T02:02:43.717Z,17.18
2018-07-22T02:05:15.809Z,17.19
2018-07-22T02:07:47.877Z,17.15
2018-07-22T02:10:19.996Z,17.15
2018-07-22T02:12:52.008Z,17.16
2018-07-22T02:15:24.094Z,17.12
2018-07-22T02:17:56.057Z,17.12
2018-07-22T02:20:28.018Z,17.12
2018-07-22T02:22:59.959Z,17.16
2018-07-22T02:25:31.914Z,17.11
2018-07-22T02:28:03.936Z,17.14
2018-07-22T02:30:35.915Z,17.13
2018-07-22T02:33:07.847Z,17.11
2018-07-22T02:35:39.815Z,17.07
2018-07-22T02:38:11.755Z,17.13
2018-07-22T02:40:43.735Z,17.14
2018-07-22T02:43:15.730Z,17.09
2018-07-22T02:45:47.714Z,17.03
2018-07-22T02:48:19.656Z,17.06
2018-07-22T02:50:51.619Z,17.05
2018-07-22T02:53:23.576Z,17.01
2018-07-22T02:55:55.514Z,16.98
2018-07-22T02:58:27.457Z,17.00
2018-07-22T03:00:59.410Z,16.97
2018-07-22T03:03:31.457Z,16.97
2018-07-22T03:06:03.336Z,16.98
2018-07-22T03:08:35.306Z,16.99
2018-07-22T03:11:07.310Z,16.98
2018-07-22T03:13:39.389Z,16.99
2018-07-22T03:16:11.332Z,16.96
2018-07-22T03:18:43.291Z,16.94
2018-07-22T03:21:15.236Z,16.94
2018-07-22T03:23:47.245Z,16.93
2018-07-22T03:26:19.190Z,16.97
2018-07-22T03:28:51.118Z,16.96
2018-07-22T03:31:23.098Z,16.90
2018-07-22T03:33:55.076Z,16.89
2018-07-22T03:36:27.030Z,16.96
2018-07-22T03:38:58.960Z,16.95
2018-07-22T03:41:30.925Z,16.92
2018-07-22T03:44:02.899Z,16.92
2018-07-22T03:46:34.932Z,16.99
2018-07-22T03:49:06.875Z,16.98
2018-07-22T03:51:38.898Z,17.02
2018-07-22T03:54:10.844Z,16.98
2018-07-22T03:56:42.823Z,17.06
2018-07-22T03:59:14.779Z,17.09
2018-07-22T04:01:46.730Z,17.06
2018-07-22T04:04:18.659Z,17.06
2018-07-22T04:06:50.621Z,17.08
2018-07-22T04:09:22.559Z,17.08
2018-07-22T04:11:54.554Z,17.09
2018-07-22T04:14:26.519Z,17.13
2018-07-22T04:16:58.515Z,17.18
2018-07-22T04:19:30.468Z,17.18
2018-07-22T04:22:02.463Z,17.17
2018-07-22T04:24:34.422Z,17.21
2018-07-22T04:27:06.438Z,17.26
2018-07-22T04:29:38.393Z,17.25
2018-07-22T04:32:10.371Z,17.32
2018-07-22T04:34:42.324Z,17.30
2018-07-22T04:37:14.279Z,17.35
2018-07-22T04:39:46.253Z,17.30
2018-07-22T04:42:18.217Z,17.29
2018-07-22T04:44:50.174Z,17.28
2018-07-22T04:47:22.161Z,17.33
2018-07-22T04:49:54.118Z,17.35
2018-07-22T04:52:26.115Z,17.35
2018-07-22T04:54:58.104Z,17.32
2018-07-22T04:57:30.080Z,17.31
2018-07-22T05:00:02.046Z,17.33
2018-07-22T05:02:34.010Z,17.40
2018-07-22T05:05:05.998Z,17.31
2018-07-22T05:07:37.952Z,17.28
2018-07-22T05:10:09.926Z,17.29
2018-07-22T05:12:41.898Z,17.31
2018-07-22T05:15:13.835Z,17.34
2018-07-22T05:17:45.847Z,17.38
2018-07-22T05:20:17.802Z,17.39
2018-07-22T05:22:49.755Z,17.47
2018-07-22T05:25:21.754Z,17.42
2018-07-22T05:27:53.999Z,17.47
2018-07-22T05:30:25.935Z,17.41
2018-07-22T05:32:57.923Z,17.36
2018-07-22T05:35:29.866Z,17.34
2018-07-22T05:38:01.815Z,17.31
2018-07-22T05:40:33.794Z,17.35
2018-07-22T05:43:05.779Z,17.43
2018-07-22T05:45:37.751Z,17.38
2018-07-22T05:48:09.731Z,17.35
2018-07-22T05:50:41.807Z,17.39
2018-07-22T05:53:13.805Z,17.40
2018-07-22T05:55:45.807Z,17.26
2018-07-22T05:58:17.766Z,17.29
2018-07-22T06:00:49.718Z,17.37
2018-07-22T06:03:21.723Z,17.33
2018-07-22T06:05:53.711Z,17.38
2018-07-22T06:08:25.690Z,17.39
2018-07-22T06:10:57.655Z,17.32
2018-07-22T06:13:29.651Z,17.33
2018-07-22T06:16:01.586Z,17.33
2018-07-22T06:18:33.527Z,17.26
2018-07-22T06:21:05.655Z,17.25
2018-07-22T06:23:37.618Z,17.26
2018-07-22T06:26:09.544Z,17.25
2018-07-22T06:28:41.508Z,17.23
2018-07-22T06:31:13.472Z,17.22
2018-07-22T06:33:45.435Z,17.29
2018-07-22T06:36:17.390Z,17.27
2018-07-22T06:38:49.504Z,17.32
2018-07-22T06:41:21.560Z,17.42
2018-07-22T06:43:54.418Z,17.40
2018-07-22T06:46:26.354Z,17.44
2018-07-22T06:48:58.334Z,17.53
2018-07-22T06:51:30.290Z,17.56
2018-07-22T06:54:02.250Z,17.54
2018-07-22T06:56:34.254Z,17.57
2018-07-22T06:59:06.205Z,17.63
2018-07-22T07:01:38.152Z,17.67
2018-07-22T07:04:10.198Z,17.76
2018-07-22T07:06:42.164Z,17.82
2018-07-22T07:09:14.139Z,17.92
2018-07-22T07:11:46.144Z,18.07
2018-07-22T07:14:18.110Z,17.98
2018-07-22T07:16:50.059Z,17.96
2018-07-22T07:19:22.067Z,17.96
2018-07-22T07:21:54.080Z,18.13
2018-07-22T07:24:26.079Z,18.02
2018-07-22T07:26:58.103Z,17.91
2018-07-22T07:29:30.130Z,17.93
2018-07-22T07:32:04.235Z,17.85
2018-07-22T07:34:36.198Z,17.85
2018-07-22T07:37:08.175Z,17.88
2018-07-22T07:39:40.164Z,17.79
2018-07-22T07:42:12.165Z,17.79
2018-07-22T07:44:44.174Z,17.79
2018-07-22T07:47:16.130Z,17.63
2018-07-22T07:49:48.183Z,17.64
2018-07-22T07:52:20.166Z,17.72
2018-07-22T07:54:52.202Z,17.79
2018-07-22T07:57:24.171Z,17.85
2018-07-22T07:59:56.170Z,17.96
2018-07-22T08:02:28.159Z,17.98
2018-07-22T08:05:01.164Z,18.07
2018-07-22T08:07:33.145Z,18.28
2018-07-22T08:10:05.682Z,18.43
2018-07-22T08:12:37.690Z,18.49
2018-07-22T08:15:09.659Z,18.74
2018-07-22T08:17:41.630Z,18.78
2018-07-22T08:20:13.595Z,18.82
2018-07-22T08:22:45.587Z,18.93
2018-07-22T08:25:17.599Z,19.06
2018-07-22T08:27:49.814Z,19.24
2018-07-22T08:30:21.863Z,19.44
2018-07-22T08:32:53.751Z,19.58
2018-07-22T08:35:25.714Z,19.37
2018-07-22T08:37:57.671Z,19.28
2018-07-22T08:40:29.673Z,19.81
2018-07-22T08:43:01.658Z,19.99
2018-07-22T08:45:33.610Z,19.96
2018-07-22T08:48:06.198Z,20.08
2018-07-22T08:50:38.199Z,20.09
2018-07-22T08:53:10.193Z,20.49
2018-07-22T08:55:42.152Z,20.62
2018-07-22T08:58:14.117Z,20.37
2018-07-22T09:00:46.099Z,20.76
2018-07-22T09:03:18.048Z,20.81
2018-07-22T09:05:50.027Z,20.70
2018-07-22T09:08:21.993Z,20.42
2018-07-22T09:10:53.988Z,20.64
2018-07-22T09:13:25.978Z,20.75
2018-07-22T09:15:57.983Z,21.17
2018-07-22T09:18:29.942Z,20.85
2018-07-22T09:21:01.938Z,21.40
2018-07-22T09:23:33.895Z,21.55
2018-07-22T09:26:05.867Z,22.07
2018-07-22T09:28:37.850Z,22.31
2018-07-22T09:31:09.842Z,22.53
2018-07-22T09:33:41.823Z,22.69
2018-07-22T09:36:13.990Z,22.42
2018-07-22T09:38:45.826Z,22.27
2018-07-22T09:41:17.827Z,22.14
2018-07-22T09:43:49.803Z,22.09
2018-07-22T09:46:21.783Z,22.64
2018-07-22T09:48:53.748Z,23.06
2018-07-22T09:51:25.738Z,23.59
2018-07-22T09:53:57.726Z,23.15
2018-07-22T09:56:29.715Z,22.57
2018-07-22T09:59:01.700Z,22.84
2018-07-22T10:01:33.688Z,22.67
2018-07-22T10:04:05.681Z,22.47
2018-07-22T10:06:37.696Z,22.52
2018-07-22T10:09:10.758Z,22.73
2018-07-22T10:11:42.755Z,22.98
2018-07-22T10:14:14.729Z,22.97
2018-07-22T10:16:46.749Z,23.28
2018-07-22T10:19:18.734Z,23.61
2018-07-22T10:21:50.755Z,23.95
2018-07-22T10:24:22.741Z,23.60
2018-07-22T10:26:54.751Z,23.84
2018-07-22T10:29:26.736Z,24.20
2018-07-22T10:31:58.731Z,24.78
2018-07-22T10:34:30.731Z,24.91
2018-07-22T10:37:02.766Z,25.49
2018-07-22T10:39:34.749Z,25.37
2018-07-22T10:42:06.760Z,25.06
2018-07-22T10:44:38.748Z,24.88
2018-07-22T10:47:10.755Z,24.38
2018-07-22T10:49:42.750Z,24.23
2018-07-22T10:52:14.953Z,23.32
2018-07-22T10:54:46.934Z,23.04
2018-07-22T10:57:18.938Z,22.91
2018-07-22T10:59:50.948Z,23.18
2018-07-22T11:02:23.066Z,22.85
2018-07-22T11:04:54.999Z,23.01
2018-07-22T11:07:27.002Z,23.06
2018-07-22T11:09:58.966Z,23.33
2018-07-22T11:12:30.964Z,23.64
2018-07-22T11:15:03.343Z,23.23
2018-07-22T11:20:13.982Z,23.98
2018-07-22T11:22:45.987Z,24.37
2018-07-22T11:25:17.942Z,24.09
2018-07-22T11:27:49.932Z,23.99
2018-07-22T11:30:21.904Z,24.14
2018-07-22T11:32:53.886Z,24.55
2018-07-22T11:35:25.848Z,24.30
2018-07-22T11:37:57.835Z,24.54
2018-07-22T11:40:29.836Z,25.09
2018-07-22T11:43:01.813Z,25.45
2018-07-22T11:45:33.784Z,24.86
2018-07-22T11:48:05.768Z,24.58
2018-07-22T11:50:37.764Z,24.59
2018-07-22T11:53:10.071Z,25.20
2018-07-22T11:55:42.044Z,25.28
2018-07-22T11:58:14.054Z,25.38
2018-07-22T12:00:47.759Z,25.15
2018-07-22T12:03:19.947Z,25.56
2018-07-22T12:05:51.925Z,26.19
2018-07-22T12:08:23.919Z,26.41
2018-07-22T12:10:55.898Z,26.57
2018-07-22T12:13:27.895Z,26.95
2018-07-22T12:15:59.843Z,26.61
2018-07-22T12:18:32.266Z,26.84
2018-07-22T12:21:04.246Z,26.48
2018-07-22T12:23:36.231Z,26.40
2018-07-22T12:26:08.214Z,26.48
2018-07-22T12:28:40.182Z,26.07
2018-07-22T12:31:12.133Z,25.90
2018-07-22T12:33:44.090Z,26.01
2018-07-22T12:36:16.044Z,25.70
2018-07-22T12:38:48.027Z,26.22
2018-07-22T12:41:19.998Z,25.96
2018-07-22T12:43:51.979Z,25.96
2018-07-22T12:46:23.946Z,26.37
2018-07-22T12:48:55.907Z,26.96
2018-07-22T12:51:27.858Z,27.69
2018-07-22T12:53:59.834Z,27.67
2018-07-22T12:56:31.827Z,27.82
2018-07-22T12:59:03.805Z,27.17
2018-07-22T13:01:35.773Z,27.30
2018-07-22T13:04:07.811Z,27.36
2018-07-22T13:06:39.776Z,27.51
2018-07-22T13:09:11.743Z,27.45
2018-07-22T13:11:43.755Z,27.13
2018-07-22T13:14:15.755Z,27.55
2018-07-22T13:16:47.715Z,27.87
2018-07-22T13:19:19.674Z,27.05
2018-07-22T13:21:51.622Z,27.29
2018-07-22T13:24:23.581Z,27.27
2018-07-22T13:26:55.540Z,27.97
2018-07-22T13:29:27.521Z,28.01
2018-07-22T13:31:59.842Z,27.89
2018-07-22T13:34:31.847Z,27.12
2018-07-22T13:37:03.894Z,27.70
2018-07-22T13:39:35.858Z,27.84
2018-07-22T13:42:07.824Z,27.94
2018-07-22T13:44:39.890Z,27.62
2018-07-22T13:47:11.844Z,27.31
2018-07-22T13:49:50.703Z,27.48
2018-07-22T13:52:22.699Z,27.97
2018-07-22T13:54:54.807Z,27.71
2018-07-22T13:57:26.990Z,28.23
2018-07-22T13:59:58.984Z,27.96
2018-07-22T14:02:30.938Z,29.10
2018-07-22T14:05:02.992Z,29.58
2018-07-22T14:07:35.815Z,29.69
2018-07-22T14:10:07.803Z,29.07
2018-07-22T14:12:39.787Z,29.11
2018-07-22T14:15:11.813Z,28.57
2018-07-22T14:17:43.879Z,28.32
2018-07-22T14:20:15.815Z,28.91
2018-07-22T14:22:47.794Z,28.94
2018-07-22T14:27:58.681Z,29.46
2018-07-22T14:30:30.678Z,30.14
2018-07-22T14:33:02.676Z,30.42
2018-07-22T14:35:34.678Z,30.86
2018-07-22T14:38:06.710Z,30.51
2018-07-22T14:40:38.770Z,30.51
2018-07-22T14:43:10.704Z,31.07
2018-07-22T14:48:21.485Z,32.86
2018-07-22T14:50:53.457Z,30.48
2018-07-22T14:53:25.458Z,29.44
2018-07-22T14:55:57.438Z,28.83
2018-07-22T14:58:29.411Z,27.91
2018-07-22T15:01:01.420Z,27.25
2018-07-22T15:03:33.415Z,27.50
2018-07-22T15:06:05.440Z,27.96
2018-07-22T15:08:37.427Z,27.92
2018-07-22T15:11:09.434Z,28.23
2018-07-22T15:13:41.420Z,27.66
2018-07-22T15:16:13.434Z,27.11
2018-07-22T15:18:45.430Z,27.30
2018-07-22T15:21:17.411Z,27.25
2018-07-22T15:23:49.423Z,27.52
2018-07-22T15:26:21.479Z,27.87
2018-07-22T15:28:53.471Z,27.85
2018-07-22T15:31:25.463Z,28.18
2018-07-22T15:33:57.452Z,27.68
2018-07-22T15:36:29.448Z,27.73
2018-07-22T15:39:01.478Z,27.52
2018-07-22T15:41:33.471Z,27.73
2018-07-22T15:44:05.439Z,27.61
2018-07-22T15:46:37.631Z,27.65
2018-07-22T15:49:09.615Z,27.59
2018-07-22T15:51:41.600Z,27.44
2018-07-22T15:54:13.566Z,27.60
2018-07-22T15:56:45.542Z,27.46
2018-07-22T15:59:17.526Z,26.99
2018-07-22T16:01:49.524Z,26.78
2018-07-22T16:04:21.512Z,26.86
2018-07-22T16:06:53.502Z,26.60
2018-07-22T16:09:25.460Z,26.54
2018-07-22T16:11:57.455Z,26.43
2018-07-22T16:14:29.418Z,26.65
2018-07-22T16:17:01.388Z,26.41
2018-07-22T16:19:33.326Z,26.35
2018-07-22T16:22:05.268Z,26.42
2018-07-22T16:24:37.246Z,26.06
2018-07-22T16:27:09.216Z,25.99
2018-07-22T16:29:41.540Z,25.98
2018-07-22T16:32:13.489Z,25.57
2018-07-22T16:34:45.476Z,25.72
2018-07-22T16:37:17.469Z,25.60
2018-07-22T16:39:49.437Z,25.30
2018-07-22T16:42:21.444Z,25.22
2018-07-22T16:44:53.403Z,25.48
2018-07-22T16:47:25.372Z,25.05
2018-07-22T16:49:57.323Z,24.68
2018-07-22T16:52:29.295Z,24.82
2018-07-22T16:55:01.252Z,24.81
2018-07-22T16:57:34.023Z,24.39
2018-07-22T17:00:05.991Z,24.55
2018-07-22T17:02:38.022Z,24.58
2018-07-22T17:05:09.937Z,24.20
2018-07-22T17:07:41.936Z,23.99
2018-07-22T17:10:13.911Z,24.20
2018-07-22T17:12:46.210Z,24.40
2018-07-22T17:15:18.208Z,24.26
2018-07-22T17:17:50.203Z,24.21
2018-07-22T17:20:22.257Z,23.99
2018-07-22T17:22:54.208Z,23.92
2018-07-22T17:25:26.195Z,23.82
2018-07-22T17:27:58.175Z,23.97
2018-07-22T17:30:30.147Z,23.94
2018-07-22T17:33:02.134Z,23.86
2018-07-22T17:35:34.107Z,23.93
2018-07-22T17:38:06.115Z,23.71
2018-07-22T17:40:38.087Z,23.48
2018-07-22T17:43:10.088Z,23.38
2018-07-22T17:45:42.063Z,23.27
2018-07-22T17:48:14.066Z,23.11
2018-07-22T17:50:46.078Z,23.05
2018-07-22T17:53:18.063Z,23.03
2018-07-22T17:55:50.039Z,22.92
2018-07-22T17:58:22.040Z,22.92
2018-07-22T18:00:54.040Z,22.87
2018-07-22T18:03:28.119Z,22.78
2018-07-22T18:06:00.506Z,22.67
2018-07-22T18:08:32.623Z,22.69
2018-07-22T18:11:04.820Z,22.68
2018-07-22T18:13:36.904Z,22.55
2018-07-22T18:16:08.944Z,22.44
2018-07-22T18:18:40.956Z,22.36
2018-07-22T18:21:12.954Z,22.31
2018-07-22T18:23:45.008Z,22.25
2018-07-22T18:26:17.016Z,22.11
2018-07-22T18:28:49.040Z,21.96
2018-07-22T18:31:21.038Z,21.94
2018-07-22T18:33:53.033Z,21.84
2018-07-22T18:36:25.039Z,21.91
2018-07-22T18:38:57.068Z,21.92
2018-07-22T18:41:29.116Z,21.74
2018-07-22T18:44:01.115Z,21.81
2018-07-22T18:46:33.105Z,21.81
2018-07-22T18:49:05.111Z,21.71
2018-07-22T18:51:37.167Z,21.70
2018-07-22T18:54:09.190Z,21.63
2018-07-22T18:56:41.195Z,21.63
2018-07-22T18:59:13.182Z,21.55
2018-07-22T19:01:45.223Z,21.56
2018-07-22T19:04:17.207Z,21.46
2018-07-22T19:06:49.239Z,21.38
2018-07-22T19:09:21.222Z,21.32
2018-07-22T19:11:53.298Z,21.37
2018-07-22T19:14:25.363Z,21.38
2018-07-22T19:16:57.407Z,21.33
2018-07-22T19:19:29.432Z,21.28
2018-07-22T19:22:01.519Z,21.23
2018-07-22T19:24:33.546Z,21.13
2018-07-22T19:27:05.587Z,21.02
2018-07-22T19:29:37.689Z,21.00
2018-07-22T19:32:09.720Z,20.96
2018-07-22T19:34:41.795Z,20.89
2018-07-22T19:37:13.851Z,20.87
2018-07-22T19:39:45.857Z,20.86
2018-07-22T19:42:17.930Z,20.85
2018-07-22T19:44:49.956Z,20.73
2018-07-22T19:47:21.950Z,20.76
2018-07-22T19:49:53.994Z,20.74
2018-07-22T19:52:26.060Z,20.76
2018-07-22T19:54:58.091Z,20.74
2018-07-22T19:57:30.110Z,20.74
2018-07-22T20:00:02.236Z,20.72
2018-07-22T20:02:34.340Z,20.70
2018-07-22T20:05:06.422Z,20.68
2018-07-22T20:07:38.533Z,20.61
2018-07-22T20:10:10.567Z,20.59
2018-07-22T20:12:43.218Z,20.64
2018-07-22T20:15:15.164Z,20.60
2018-07-22T20:17:47.197Z,20.55
2018-07-22T20:20:19.266Z,20.48
2018-07-22T20:22:51.277Z,20.54
2018-07-22T20:25:23.352Z,20.47
2018-07-22T20:27:55.362Z,20.39
2018-07-22T20:30:27.412Z,20.40
2018-07-22T20:32:59.467Z,20.39
2018-07-22T20:35:31.525Z,20.33
2018-07-22T20:38:03.906Z,20.29
2018-07-22T20:40:35.977Z,20.35
2018-07-22T20:43:08.013Z,20.37
2018-07-22T20:45:40.098Z,20.28
2018-07-22T20:48:12.087Z,20.25
2018-07-22T20:50:44.116Z,20.16
2018-07-22T20:53:16.151Z,20.26
2018-07-22T20:55:48.152Z,20.24
2018-07-22T20:58:20.278Z,20.17
2018-07-22T21:00:52.328Z,20.16
2018-07-22T21:03:24.343Z,20.15
2018-07-22T21:05:56.396Z,20.17
2018-07-22T21:08:28.379Z,20.22
2018-07-22T21:11:01.558Z,20.14
2018-07-22T21:13:33.587Z,20.11
2018-07-22T21:16:05.659Z,20.16
2018-07-22T21:18:37.709Z,20.07
2018-07-22T21:21:09.731Z,20.01
2018-07-22T21:23:41.827Z,20.00
2018-07-22T21:26:13.841Z,19.96
2018-07-22T21:28:45.870Z,19.87
2018-07-22T21:31:17.914Z,19.74
2018-07-22T21:33:49.966Z,19.75
2018-07-22T21:36:22.049Z,19.75
2018-07-22T21:38:54.086Z,19.68
2018-07-22T21:41:26.155Z,19.68
2018-07-22T21:43:58.177Z,19.64
2018-07-22T21:46:30.218Z,19.52
2018-07-22T21:49:02.334Z,19.42
2018-07-22T21:51:34.364Z,19.22
2018-07-22T21:54:06.527Z,19.04
2018-07-22T21:56:38.548Z,18.86
2018-07-22T21:59:10.611Z,18.67
2018-07-22T22:01:42.791Z,18.59
2018-07-22T22:04:14.849Z,18.55
2018-07-22T22:06:46.896Z,18.56
2018-07-22T22:09:18.954Z,18.54
2018-07-22T22:11:51.039Z,18.49
2018-07-22T22:14:23.111Z,18.54
2018-07-22T22:16:55.196Z,18.50
2018-07-22T22:19:27.366Z,18.42
2018-07-22T22:21:59.503Z,18.39
2018-07-22T22:24:31.571Z,18.51
2018-07-22T22:27:03.767Z,18.55
2018-07-22T22:29:35.803Z,18.57
2018-07-22T22:32:08.093Z,18.62
2018-07-22T22:34:40.131Z,18.61
2018-07-22T22:37:12.183Z,18.55
2018-07-22T22:39:44.232Z,18.53
2018-07-22T22:42:16.314Z,18.58
2018-07-22T22:44:48.446Z,18.53
2018-07-22T22:47:20.562Z,18.51
2018-07-22T22:49:52.673Z,18.45
2018-07-22T22:52:24.810Z,18.41
2018-07-22T22:54:57.063Z,18.37
2018-07-22T22:57:29.150Z,18.43
2018-07-22T23:00:01.378Z,18.44
2018-07-22T23:02:33.455Z,18.45
2018-07-22T23:05:06.970Z,18.53
2018-07-22T23:07:39.020Z,18.45
2018-07-22T23:10:11.064Z,18.56
2018-07-22T23:12:43.180Z,18.49
2018-07-22T23:15:15.197Z,18.51
2018-07-22T23:17:47.257Z,18.55
2018-07-22T23:20:19.323Z,18.47
2018-07-22T23:22:51.426Z,18.46
2018-07-22T23:25:23.455Z,18.52
2018-07-22T23:27:55.620Z,18.48
2018-07-22T23:30:27.815Z,18.43
2018-07-22T23:32:59.979Z,18.44
2018-07-22T23:35:32.048Z,18.46
2018-07-22T23:38:04.500Z,18.39
2018-07-22T23:40:36.553Z,18.35
2018-07-22T23:43:08.659Z,18.30
2018-07-22T23:45:40.731Z,18.30
2018-07-22T23:48:12.832Z,18.30
2018-07-22T23:50:44.949Z,18.16
2018-07-22T23:53:17.065Z,18.16
2018-07-22T23:55:49.150Z,18.14
2018-07-22T23:58:21.280Z,18.13
